sensor_id;sensor_type;location;lat;lon;timestamp;pressure;altitude;pressure_sealevel;temperature;humidity
10946;BME280;5525;42.648;23.368;2022-10-16T00:00:46;95315.72;;;8.69;100.00
10946;BME280;5525;42.648;23.368;2022-10-16T00:03:14;95279.19;;;8.49;100.00
10946;BME280;5525;42.648;23.368;2022-10-16T00:05:42;95313.94;;;8.64;100.00
10946;BME280;5525;42.648;23.368;2022-10-16T00:08:11;95311.69;;;8.52;100.00
10946;BME280;5525;42.648;23.368;2022-10-16T00:10:39;95310.19;;;8.46;100.00
10946;BME280;5525;42.648;23.368;2022-10-16T00:13:06;95324.47;;;8.28;100.00
10946;BME280;5525;42.648;23.368;2022-10-16T00:15:34;95316.88;;;8.12;100.00
10946;BME280;5525;42.648;23.368;2022-10-16T00:18:03;95317.00;;;8.25;100.00
10946;BME280;5525;42.648;23.368;2022-10-16T00:20:33;95327.56;;;8.35;100.00
10946;BME280;5525;42.648;23.368;2022-10-16T00:23:02;95305.81;;;8.13;100.00
10946;BME280;5525;42.648;23.368;2022-10-16T00:25:30;95332.06;;;8.03;100.00
10946;BME280;5525;42.648;23.368;2022-10-16T00:27:59;95332.81;;;7.90;100.00
10946;BME280;5525;42.648;23.368;2022-10-16T00:30:26;95327.22;;;7.86;100.00
10946;BME280;5525;42.648;23.368;2022-10-16T00:32:54;95338.19;;;7.90;100.00
10946;BME280;5525;42.648;23.368;2022-10-16T00:35:21;95347.03;;;7.90;100.00
10946;BME280;5525;42.648;23.368;2022-10-16T00:37:49;95336.66;;;7.84;100.00
10946;BME280;5525;42.648;23.368;2022-10-16T00:40:16;95346.09;;;7.81;100.00
10946;BME280;5525;42.648;23.368;2022-10-16T00:42:43;95338.78;;;7.87;100.00
10946;BME280;5525;42.648;23.368;2022-10-16T00:45:10;95346.97;;;7.95;100.00
10946;BME280;5525;42.648;23.368;2022-10-16T00:47:40;95341.59;;;7.95;100.00
10946;BME280;5525;42.648;23.368;2022-10-16T00:50:16;95322.13;;;7.85;100.00
10946;BME280;5525;42.648;23.368;2022-10-16T00:52:46;95342.34;;;8.01;100.00
10946;BME280;5525;42.648;23.368;2022-10-16T00:55:15;95339.13;;;7.99;100.00
10946;BME280;5525;42.648;23.368;2022-10-16T00:57:44;95317.50;;;7.72;100.00
10946;BME280;5525;42.648;23.368;2022-10-16T01:00:14;95343.13;;;7.83;100.00
10946;BME280;5525;42.648;23.368;2022-10-16T01:02:42;95347.44;;;7.84;100.00
10946;BME280;5525;42.648;23.368;2022-10-16T01:05:09;95324.69;;;7.76;100.00
10946;BME280;5525;42.648;23.368;2022-10-16T01:07:43;95354.84;;;7.73;100.00
10946;BME280;5525;42.648;23.368;2022-10-16T01:10:22;95344.91;;;7.69;100.00
10946;BME280;5525;42.648;23.368;2022-10-16T01:12:57;95358.97;;;7.84;100.00
10946;BME280;5525;42.648;23.368;2022-10-16T01:15:28;95351.03;;;7.74;100.00
10946;BME280;5525;42.648;23.368;2022-10-16T01:18:00;95347.34;;;7.89;100.00
10946;BME280;5525;42.648;23.368;2022-10-16T01:20:32;95350.78;;;7.94;100.00
10946;BME280;5525;42.648;23.368;2022-10-16T01:23:10;95328.97;;;7.96;100.00
10946;BME280;5525;42.648;23.368;2022-10-16T01:26:13;95345.16;;;8.09;100.00
10946;BME280;5525;42.648;23.368;2022-10-16T01:28:51;95329.75;;;8.15;100.00
10946;BME280;5525;42.648;23.368;2022-10-16T01:31:23;95329.44;;;8.16;100.00
10946;BME280;5525;42.648;23.368;2022-10-16T01:33:56;95326.97;;;8.20;100.00
10946;BME280;5525;42.648;23.368;2022-10-16T01:36:28;95325.66;;;8.22;100.00
10946;BME280;5525;42.648;23.368;2022-10-16T01:39:00;95329.75;;;8.15;100.00
10946;BME280;5525;42.648;23.368;2022-10-16T01:41:31;95323.22;;;8.02;100.00
10946;BME280;5525;42.648;23.368;2022-10-16T01:44:04;95330.72;;;8.24;100.00
10946;BME280;5525;42.648;23.368;2022-10-16T01:46:35;95319.09;;;8.10;100.00
10946;BME280;5525;42.648;23.368;2022-10-16T01:49:03;95342.50;;;8.28;100.00
10946;BME280;5525;42.648;23.368;2022-10-16T01:51:30;95340.09;;;8.26;100.00
10946;BME280;5525;42.648;23.368;2022-10-16T01:54:00;95344.91;;;8.29;100.00
10946;BME280;5525;42.648;23.368;2022-10-16T01:56:29;95348.78;;;8.18;100.00
10946;BME280;5525;42.648;23.368;2022-10-16T01:58:58;95346.06;;;8.23;100.00
10946;BME280;5525;42.648;23.368;2022-10-16T02:01:31;95346.69;;;8.15;100.00
10946;BME280;5525;42.648;23.368;2022-10-16T02:04:11;95344.47;;;8.22;100.00
10946;BME280;5525;42.648;23.368;2022-10-16T02:06:39;95345.47;;;8.26;100.00
10946;BME280;5525;42.648;23.368;2022-10-16T02:09:06;95341.97;;;8.26;100.00
10946;BME280;5525;42.648;23.368;2022-10-16T02:11:33;95354.19;;;8.37;100.00
10946;BME280;5525;42.648;23.368;2022-10-16T02:14:03;95348.81;;;8.37;100.00
10946;BME280;5525;42.648;23.368;2022-10-16T02:16:39;95351.22;;;8.38;100.00
10946;BME280;5525;42.648;23.368;2022-10-16T02:19:06;95353.59;;;8.40;100.00
10946;BME280;5525;42.648;23.368;2022-10-16T02:21:40;95358.88;;;8.31;100.00
10946;BME280;5525;42.648;23.368;2022-10-16T02:24:13;95359.94;;;8.30;100.00
10946;BME280;5525;42.648;23.368;2022-10-16T02:26:47;95354.06;;;8.28;100.00
10946;BME280;5525;42.648;23.368;2022-10-16T02:29:18;95358.25;;;8.16;100.00
10946;BME280;5525;42.648;23.368;2022-10-16T02:31:55;95352.94;;;8.11;100.00
10946;BME280;5525;42.648;23.368;2022-10-16T02:34:24;95357.81;;;8.09;100.00
10946;BME280;5525;42.648;23.368;2022-10-16T02:36:53;95368.50;;;8.14;100.00
10946;BME280;5525;42.648;23.368;2022-10-16T02:39:21;95367.84;;;8.03;100.00
10946;BME280;5525;42.648;23.368;2022-10-16T02:41:48;95371.75;;;7.92;100.00
10946;BME280;5525;42.648;23.368;2022-10-16T02:44:15;95365.34;;;7.70;100.00
10946;BME280;5525;42.648;23.368;2022-10-16T02:46:42;95371.22;;;7.53;100.00
10946;BME280;5525;42.648;23.368;2022-10-16T02:49:10;95368.72;;;7.57;100.00
10946;BME280;5525;42.648;23.368;2022-10-16T02:51:37;95363.81;;;7.40;100.00
10946;BME280;5525;42.648;23.368;2022-10-16T02:54:04;95374.25;;;7.47;100.00
10946;BME280;5525;42.648;23.368;2022-10-16T02:56:30;95375.78;;;7.53;100.00
10946;BME280;5525;42.648;23.368;2022-10-16T02:58:57;95350.72;;;7.34;100.00
10946;BME280;5525;42.648;23.368;2022-10-16T03:01:24;95388.25;;;7.44;100.00
10946;BME280;5525;42.648;23.368;2022-10-16T03:03:51;95387.19;;;7.40;100.00
10946;BME280;5525;42.648;23.368;2022-10-16T03:06:19;95396.34;;;7.39;100.00
10946;BME280;5525;42.648;23.368;2022-10-16T03:08:46;95398.75;;;7.40;100.00
10946;BME280;5525;42.648;23.368;2022-10-16T03:11:13;95389.59;;;7.41;100.00
10946;BME280;5525;42.648;23.368;2022-10-16T03:13:40;95366.13;;;7.28;100.00
10946;BME280;5525;42.648;23.368;2022-10-16T03:16:07;95393.22;;;7.32;100.00
10946;BME280;5525;42.648;23.368;2022-10-16T03:18:34;95375.56;;;7.26;100.00
10946;BME280;5525;42.648;23.368;2022-10-16T03:21:01;95402.88;;;7.33;100.00
10946;BME280;5525;42.648;23.368;2022-10-16T03:23:29;95412.53;;;7.34;100.00
10946;BME280;5525;42.648;23.368;2022-10-16T03:25:56;95407.50;;;7.27;100.00
10946;BME280;5525;42.648;23.368;2022-10-16T03:28:23;95391.72;;;7.21;100.00
10946;BME280;5525;42.648;23.368;2022-10-16T03:30:50;95391.25;;;7.14;100.00
10946;BME280;5525;42.648;23.368;2022-10-16T03:33:16;95414.22;;;7.25;100.00
10946;BME280;5525;42.648;23.368;2022-10-16T03:35:50;95398.41;;;7.23;100.00
10946;BME280;5525;42.648;23.368;2022-10-16T03:38:18;95409.91;;;7.29;100.00
10946;BME280;5525;42.648;23.368;2022-10-16T03:40:47;95405.59;;;7.28;100.00
10946;BME280;5525;42.648;23.368;2022-10-16T03:43:14;95414.75;;;7.27;100.00
10946;BME280;5525;42.648;23.368;2022-10-16T03:45:41;95406.09;;;7.35;100.00
10946;BME280;5525;42.648;23.368;2022-10-16T03:48:07;95405.09;;;7.26;100.00
10946;BME280;5525;42.648;23.368;2022-10-16T03:50:35;95406.00;;;7.16;100.00
10946;BME280;5525;42.648;23.368;2022-10-16T03:53:02;95397.72;;;7.13;100.00
10946;BME280;5525;42.648;23.368;2022-10-16T03:55:29;95398.66;;;6.98;100.00
10946;BME280;5525;42.648;23.368;2022-10-16T03:57:58;95399.56;;;6.88;100.00
10946;BME280;5525;42.648;23.368;2022-10-16T04:00:25;95402.47;;;6.92;100.00
10946;BME280;5525;42.648;23.368;2022-10-16T04:02:52;95393.34;;;6.93;100.00
10946;BME280;5525;42.648;23.368;2022-10-16T04:05:19;95377.09;;;6.79;100.00
10946;BME280;5525;42.648;23.368;2022-10-16T04:07:46;95396.72;;;6.75;100.00
10946;BME280;5525;42.648;23.368;2022-10-16T04:10:13;95396.44;;;6.76;100.00
10946;BME280;5525;42.648;23.368;2022-10-16T04:12:40;95395.81;;;6.84;100.00
10946;BME280;5525;42.648;23.368;2022-10-16T04:15:09;95399.03;;;6.86;100.00
10946;BME280;5525;42.648;23.368;2022-10-16T04:17:36;95393.00;;;6.71;100.00
10946;BME280;5525;42.648;23.368;2022-10-16T04:20:04;95373.19;;;6.67;100.00
10946;BME280;5525;42.648;23.368;2022-10-16T04:22:31;95401.16;;;6.89;100.00
10946;BME280;5525;42.648;23.368;2022-10-16T04:24:58;95408.88;;;6.96;100.00
10946;BME280;5525;42.648;23.368;2022-10-16T04:27:25;95401.13;;;6.95;100.00
10946;BME280;5525;42.648;23.368;2022-10-16T04:29:52;95408.00;;;7.06;100.00
10946;BME280;5525;42.648;23.368;2022-10-16T04:32:20;95378.59;;;6.90;100.00
10946;BME280;5525;42.648;23.368;2022-10-16T04:34:47;95394.97;;;6.89;100.00
10946;BME280;5525;42.648;23.368;2022-10-16T04:37:14;95419.22;;;6.84;100.00
10946;BME280;5525;42.648;23.368;2022-10-16T04:39:41;95398.56;;;6.46;100.00
10946;BME280;5525;42.648;23.368;2022-10-16T04:42:08;95417.06;;;6.47;100.00
10946;BME280;5525;42.648;23.368;2022-10-16T04:44:35;95420.69;;;6.28;100.00
10946;BME280;5525;42.648;23.368;2022-10-16T04:47:02;95423.66;;;6.26;100.00
10946;BME280;5525;42.648;23.368;2022-10-16T04:49:31;95402.50;;;6.20;100.00
10946;BME280;5525;42.648;23.368;2022-10-16T04:51:58;95421.19;;;6.35;100.00
10946;BME280;5525;42.648;23.368;2022-10-16T04:54:25;95438.31;;;6.39;100.00
10946;BME280;5525;42.648;23.368;2022-10-16T04:56:52;95442.44;;;6.26;100.00
10946;BME280;5525;42.648;23.368;2022-10-16T04:59:20;95433.25;;;6.37;100.00
10946;BME280;5525;42.648;23.368;2022-10-16T05:01:48;95443.16;;;6.37;100.00
10946;BME280;5525;42.648;23.368;2022-10-16T05:04:15;95444.50;;;6.39;100.00
10946;BME280;5525;42.648;23.368;2022-10-16T05:06:44;95451.19;;;6.42;100.00
10946;BME280;5525;42.648;23.368;2022-10-16T05:09:11;95461.47;;;6.30;100.00
10946;BME280;5525;42.648;23.368;2022-10-16T05:11:38;95456.63;;;6.32;100.00
10946;BME280;5525;42.648;23.368;2022-10-16T05:14:05;95454.34;;;6.49;100.00
10946;BME280;5525;42.648;23.368;2022-10-16T05:16:32;95457.00;;;6.54;100.00
10946;BME280;5525;42.648;23.368;2022-10-16T05:18:59;95457.84;;;6.49;100.00
10946;BME280;5525;42.648;23.368;2022-10-16T05:21:26;95463.44;;;6.58;100.00
10946;BME280;5525;42.648;23.368;2022-10-16T05:23:54;95452.72;;;6.53;100.00
10946;BME280;5525;42.648;23.368;2022-10-16T05:26:22;95447.81;;;6.65;100.00
10946;BME280;5525;42.648;23.368;2022-10-16T05:28:49;95447.44;;;6.76;100.00
10946;BME280;5525;42.648;23.368;2022-10-16T05:31:16;95463.22;;;6.83;100.00
10946;BME280;5525;42.648;23.368;2022-10-16T05:33:43;95462.59;;;6.96;100.00
10946;BME280;5525;42.648;23.368;2022-10-16T05:36:10;95452.34;;;6.98;100.00
10946;BME280;5525;42.648;23.368;2022-10-16T05:38:37;95450.97;;;7.06;100.00
10946;BME280;5525;42.648;23.368;2022-10-16T05:41:06;95464.69;;;7.28;100.00
10946;BME280;5525;42.648;23.368;2022-10-16T05:43:33;95472.78;;;7.23;100.00
10946;BME280;5525;42.648;23.368;2022-10-16T05:46:02;95470.28;;;7.36;100.00
10946;BME280;5525;42.648;23.368;2022-10-16T05:48:29;95448.22;;;7.39;100.00
10946;BME280;5525;42.648;23.368;2022-10-16T05:50:58;95460.88;;;7.62;100.00
10946;BME280;5525;42.648;23.368;2022-10-16T05:53:26;95459.66;;;7.73;100.00
10946;BME280;5525;42.648;23.368;2022-10-16T05:55:53;95469.03;;;7.76;100.00
10946;BME280;5525;42.648;23.368;2022-10-16T05:58:22;95487.31;;;7.74;100.00
10946;BME280;5525;42.648;23.368;2022-10-16T06:00:53;95474.84;;;7.83;100.00
10946;BME280;5525;42.648;23.368;2022-10-16T06:03:20;95487.03;;;7.99;100.00
10946;BME280;5525;42.648;23.368;2022-10-16T06:05:47;95493.81;;;8.15;100.00
10946;BME280;5525;42.648;23.368;2022-10-16T06:08:14;95500.72;;;8.26;100.00
10946;BME280;5525;42.648;23.368;2022-10-16T06:10:41;95485.47;;;8.40;100.00
10946;BME280;5525;42.648;23.368;2022-10-16T06:13:09;95499.81;;;8.54;100.00
10946;BME280;5525;42.648;23.368;2022-10-16T06:15:37;95482.78;;;8.58;100.00
10946;BME280;5525;42.648;23.368;2022-10-16T06:18:07;95505.41;;;8.76;100.00
10946;BME280;5525;42.648;23.368;2022-10-16T06:20:34;95517.84;;;8.91;100.00
10946;BME280;5525;42.648;23.368;2022-10-16T06:23:01;95489.63;;;8.88;100.00
10946;BME280;5525;42.648;23.368;2022-10-16T06:25:29;95505.38;;;9.13;100.00
10946;BME280;5525;42.648;23.368;2022-10-16T06:27:56;95523.16;;;9.14;100.00
10946;BME280;5525;42.648;23.368;2022-10-16T06:30:23;95500.69;;;9.19;100.00
10946;BME280;5525;42.648;23.368;2022-10-16T06:32:52;95504.34;;;9.41;100.00
10946;BME280;5525;42.648;23.368;2022-10-16T06:35:18;95490.56;;;9.29;100.00
10946;BME280;5525;42.648;23.368;2022-10-16T06:37:45;95521.28;;;9.60;100.00
10946;BME280;5525;42.648;23.368;2022-10-16T06:40:14;95528.25;;;9.61;100.00
10946;BME280;5525;42.648;23.368;2022-10-16T06:42:43;95530.22;;;9.74;100.00
10946;BME280;5525;42.648;23.368;2022-10-16T06:45:10;95527.69;;;9.78;100.00
10946;BME280;5525;42.648;23.368;2022-10-16T06:47:38;95533.59;;;9.93;100.00
10946;BME280;5525;42.648;23.368;2022-10-16T06:50:07;95529.22;;;9.97;100.00
10946;BME280;5525;42.648;23.368;2022-10-16T06:52:34;95512.66;;;10.04;100.00
10946;BME280;5525;42.648;23.368;2022-10-16T06:55:01;95537.97;;;10.21;100.00
10946;BME280;5525;42.648;23.368;2022-10-16T06:57:29;95539.97;;;10.30;100.00
10946;BME280;5525;42.648;23.368;2022-10-16T06:59:56;95538.47;;;10.23;100.00
10946;BME280;5525;42.648;23.368;2022-10-16T07:02:23;95556.34;;;10.47;100.00
10946;BME280;5525;42.648;23.368;2022-10-16T07:04:50;95545.75;;;10.64;100.00
10946;BME280;5525;42.648;23.368;2022-10-16T07:07:19;95553.63;;;10.60;100.00
10946;BME280;5525;42.648;23.368;2022-10-16T07:09:46;95542.72;;;10.79;100.00
10946;BME280;5525;42.648;23.368;2022-10-16T07:12:13;95550.56;;;10.89;100.00
10946;BME280;5525;42.648;23.368;2022-10-16T07:14:40;95544.97;;;10.99;100.00
10946;BME280;5525;42.648;23.368;2022-10-16T07:17:07;95552.25;;;10.98;100.00
10946;BME280;5525;42.648;23.368;2022-10-16T07:19:34;95556.91;;;11.20;100.00
10946;BME280;5525;42.648;23.368;2022-10-16T07:22:01;95544.75;;;11.31;100.00
10946;BME280;5525;42.648;23.368;2022-10-16T07:24:29;95548.44;;;11.35;100.00
10946;BME280;5525;42.648;23.368;2022-10-16T07:26:56;95553.47;;;11.28;100.00
10946;BME280;5525;42.648;23.368;2022-10-16T07:29:23;95557.41;;;11.22;100.00
10946;BME280;5525;42.648;23.368;2022-10-16T07:31:50;95553.53;;;11.36;100.00
10946;BME280;5525;42.648;23.368;2022-10-16T07:34:18;95558.59;;;11.51;100.00
10946;BME280;5525;42.648;23.368;2022-10-16T07:36:47;95561.78;;;11.75;100.00
10946;BME280;5525;42.648;23.368;2022-10-16T07:39:14;95555.41;;;11.71;100.00
10946;BME280;5525;42.648;23.368;2022-10-16T07:41:43;95551.09;;;11.70;100.00
10946;BME280;5525;42.648;23.368;2022-10-16T07:44:10;95562.88;;;11.97;100.00
10946;BME280;5525;42.648;23.368;2022-10-16T07:46:37;95553.16;;;11.96;100.00
10946;BME280;5525;42.648;23.368;2022-10-16T07:49:04;95536.63;;;11.97;100.00
10946;BME280;5525;42.648;23.368;2022-10-16T07:51:32;95556.72;;;12.05;100.00
10946;BME280;5525;42.648;23.368;2022-10-16T07:53:59;95565.66;;;12.14;100.00
10946;BME280;5525;42.648;23.368;2022-10-16T07:56:26;95556.72;;;12.05;100.00
10946;BME280;5525;42.648;23.368;2022-10-16T07:58:55;95554.25;;;12.25;100.00
10946;BME280;5525;42.648;23.368;2022-10-16T08:01:22;95548.69;;;12.30;100.00
10946;BME280;5525;42.648;23.368;2022-10-16T08:03:50;95560.69;;;12.38;100.00
10946;BME280;5525;42.648;23.368;2022-10-16T08:06:18;95561.03;;;12.45;100.00
10946;BME280;5525;42.648;23.368;2022-10-16T08:08:45;95548.31;;;12.54;100.00
10946;BME280;5525;42.648;23.368;2022-10-16T08:11:13;95563.13;;;12.56;100.00
10946;BME280;5525;42.648;23.368;2022-10-16T08:13:41;95562.34;;;12.64;100.00
10946;BME280;5525;42.648;23.368;2022-10-16T08:16:09;95561.94;;;12.88;99.96
10946;BME280;5525;42.648;23.368;2022-10-16T08:18:37;95563.88;;;12.96;98.38
10946;BME280;5525;42.648;23.368;2022-10-16T08:21:05;95563.72;;;13.01;97.70
10946;BME280;5525;42.648;23.368;2022-10-16T08:23:33;95546.38;;;13.27;96.99
10946;BME280;5525;42.648;23.368;2022-10-16T08:26:02;95556.91;;;13.37;95.76
10946;BME280;5525;42.648;23.368;2022-10-16T08:28:30;95557.53;;;13.43;94.19
10946;BME280;5525;42.648;23.368;2022-10-16T08:31:04;95558.03;;;13.62;90.34
10946;BME280;5525;42.648;23.368;2022-10-16T08:33:33;95559.75;;;13.75;87.38
10946;BME280;5525;42.648;23.368;2022-10-16T08:36:02;95553.84;;;13.82;86.84
10946;BME280;5525;42.648;23.368;2022-10-16T08:38:28;95553.72;;;13.70;86.20
10946;BME280;5525;42.648;23.368;2022-10-16T08:41:02;95553.66;;;13.95;85.44
10946;BME280;5525;42.648;23.368;2022-10-16T08:43:43;95564.13;;;14.31;81.05
10946;BME280;5525;42.648;23.368;2022-10-16T08:46:32;95565.88;;;14.35;73.69
10946;BME280;5525;42.648;23.368;2022-10-16T08:49:10;95567.09;;;14.46;73.21
10946;BME280;5525;42.648;23.368;2022-10-16T08:51:38;95561.16;;;14.53;69.25
10946;BME280;5525;42.648;23.368;2022-10-16T08:54:08;95554.09;;;14.60;67.18
10946;BME280;5525;42.648;23.368;2022-10-16T08:56:42;95555.44;;;14.75;59.40
10946;BME280;5525;42.648;23.368;2022-10-16T08:59:10;95575.44;;;14.79;60.29
10946;BME280;5525;42.648;23.368;2022-10-16T09:01:41;95573.16;;;14.81;61.97
10946;BME280;5525;42.648;23.368;2022-10-16T09:04:27;95570.22;;;14.94;61.62
10946;BME280;5525;42.648;23.368;2022-10-16T09:07:04;95569.41;;;15.23;62.20
10946;BME280;5525;42.648;23.368;2022-10-16T09:09:51;95565.00;;;15.31;60.18
10946;BME280;5525;42.648;23.368;2022-10-16T09:12:26;95568.81;;;15.38;56.46
10946;BME280;5525;42.648;23.368;2022-10-16T09:15:02;95564.25;;;15.51;54.34
10946;BME280;5525;42.648;23.368;2022-10-16T09:17:41;95562.31;;;16.04;52.78
10946;BME280;5525;42.648;23.368;2022-10-16T09:20:50;95556.50;;;17.23;48.10
10946;BME280;5525;42.648;23.368;2022-10-16T09:23:22;95554.69;;;20.86;40.53
10946;BME280;5525;42.648;23.368;2022-10-16T09:25:52;95560.81;;;23.88;33.81
10946;BME280;5525;42.648;23.368;2022-10-16T09:28:20;95557.91;;;28.23;28.27
10946;BME280;5525;42.648;23.368;2022-10-16T09:30:50;95566.34;;;31.32;24.03
10946;BME280;5525;42.648;23.368;2022-10-16T09:33:19;95579.75;;;35.78;19.78
10946;BME280;5525;42.648;23.368;2022-10-16T09:35:51;95573.84;;;35.85;18.73
10946;BME280;5525;42.648;23.368;2022-10-16T09:38:25;95582.13;;;33.63;20.21
10946;BME280;5525;42.648;23.368;2022-10-16T09:40:54;95584.53;;;37.81;17.09
10946;BME280;5525;42.648;23.368;2022-10-16T09:43:24;95575.50;;;36.58;17.77
10946;BME280;5525;42.648;23.368;2022-10-16T09:45:54;95580.00;;;36.91;16.32
10946;BME280;5525;42.648;23.368;2022-10-16T09:48:22;95573.16;;;37.99;16.16
10946;BME280;5525;42.648;23.368;2022-10-16T09:51:01;95580.41;;;39.64;14.15
10946;BME280;5525;42.648;23.368;2022-10-16T09:53:42;95578.13;;;38.28;14.81
10946;BME280;5525;42.648;23.368;2022-10-16T09:56:11;95565.81;;;37.60;15.56
10946;BME280;5525;42.648;23.368;2022-10-16T09:58:43;95556.56;;;36.85;15.98
10946;BME280;5525;42.648;23.368;2022-10-16T10:01:13;95562.03;;;39.25;13.92
10946;BME280;5525;42.648;23.368;2022-10-16T10:03:42;95562.28;;;37.83;15.24
10946;BME280;5525;42.648;23.368;2022-10-16T10:06:23;95554.09;;;41.24;13.39
10946;BME280;5525;42.648;23.368;2022-10-16T10:08:56;95560.63;;;40.18;13.95
10946;BME280;5525;42.648;23.368;2022-10-16T10:11:41;95546.81;;;40.46;12.90
10946;BME280;5525;42.648;23.368;2022-10-16T10:14:15;95556.06;;;39.52;14.05
10946;BME280;5525;42.648;23.368;2022-10-16T10:16:43;95549.44;;;38.82;14.32
10946;BME280;5525;42.648;23.368;2022-10-16T10:19:14;95553.44;;;39.48;13.69
10946;BME280;5525;42.648;23.368;2022-10-16T10:21:43;95535.56;;;40.72;13.17
10946;BME280;5525;42.648;23.368;2022-10-16T10:24:12;95554.34;;;40.95;12.92
10946;BME280;5525;42.648;23.368;2022-10-16T10:26:44;95547.56;;;40.41;12.88
10946;BME280;5525;42.648;23.368;2022-10-16T10:29:20;95532.53;;;39.60;13.35
10946;BME280;5525;42.648;23.368;2022-10-16T10:31:54;95525.88;;;37.94;13.98
10946;BME280;5525;42.648;23.368;2022-10-16T10:34:39;95537.41;;;39.60;13.35
10946;BME280;5525;42.648;23.368;2022-10-16T10:37:35;95539.47;;;41.31;12.63
10946;BME280;5525;42.648;23.368;2022-10-16T10:40:13;95541.75;;;40.50;12.69
10946;BME280;5525;42.648;23.368;2022-10-16T10:42:48;95515.25;;;37.33;14.73
10946;BME280;5525;42.648;23.368;2022-10-16T10:45:26;95520.47;;;36.12;15.45
10946;BME280;5525;42.648;23.368;2022-10-16T10:48:11;95506.03;;;34.85;16.43
10946;BME280;5525;42.648;23.368;2022-10-16T10:50:44;95512.66;;;36.07;15.18
10946;BME280;5525;42.648;23.368;2022-10-16T10:53:24;95495.84;;;36.84;14.05
10946;BME280;5525;42.648;23.368;2022-10-16T10:55:57;95497.97;;;37.96;13.57
10946;BME280;5525;42.648;23.368;2022-10-16T10:58:39;95497.41;;;38.30;13.22
10946;BME280;5525;42.648;23.368;2022-10-16T11:01:12;95509.03;;;38.61;12.88
10946;BME280;5525;42.648;23.368;2022-10-16T11:04:10;95501.63;;;38.78;12.94
10946;BME280;5525;42.648;23.368;2022-10-16T11:06:45;95499.09;;;39.93;12.20
10946;BME280;5525;42.648;23.368;2022-10-16T11:09:19;95496.78;;;37.88;13.17
10946;BME280;5525;42.648;23.368;2022-10-16T11:11:51;95494.66;;;38.50;12.50
10946;BME280;5525;42.648;23.368;2022-10-16T11:14:23;95490.63;;;37.43;12.81
10946;BME280;5525;42.648;23.368;2022-10-16T11:16:56;95500.47;;;36.46;13.12
10946;BME280;5525;42.648;23.368;2022-10-16T11:19:31;95488.97;;;36.85;12.96
10946;BME280;5525;42.648;23.368;2022-10-16T11:22:04;95491.88;;;37.00;12.77
10946;BME280;5525;42.648;23.368;2022-10-16T11:24:42;95465.38;;;35.38;14.02
10946;BME280;5525;42.648;23.368;2022-10-16T11:27:16;95465.16;;;34.54;14.81
10946;BME280;5525;42.648;23.368;2022-10-16T11:29:52;95453.38;;;34.98;14.84
10946;BME280;5525;42.648;23.368;2022-10-16T11:32:25;95469.47;;;35.55;14.27
10946;BME280;5525;42.648;23.368;2022-10-16T11:35:00;95453.97;;;35.33;14.19
10946;BME280;5525;42.648;23.368;2022-10-16T11:37:32;95468.38;;;34.74;15.11
10946;BME280;5525;42.648;23.368;2022-10-16T11:40:16;95468.44;;;34.31;15.30
10946;BME280;5525;42.648;23.368;2022-10-16T11:42:48;95473.34;;;34.39;15.98
10946;BME280;5525;42.648;23.368;2022-10-16T11:45:27;95476.25;;;34.14;15.92
10946;BME280;5525;42.648;23.368;2022-10-16T11:48:02;95467.22;;;34.10;15.82
10946;BME280;5525;42.648;23.368;2022-10-16T11:50:34;95465.47;;;34.86;15.27
10946;BME280;5525;42.648;23.368;2022-10-16T11:53:13;95448.06;;;33.74;16.31
10946;BME280;5525;42.648;23.368;2022-10-16T11:55:44;95458.59;;;32.36;16.99
10946;BME280;5525;42.648;23.368;2022-10-16T11:58:19;95473.81;;;31.78;17.98
10946;BME280;5525;42.648;23.368;2022-10-16T12:00:55;95467.44;;;30.29;19.35
10946;BME280;5525;42.648;23.368;2022-10-16T12:03:30;95449.59;;;29.88;19.54
10946;BME280;5525;42.648;23.368;2022-10-16T12:06:08;95459.09;;;30.10;19.29
10946;BME280;5525;42.648;23.368;2022-10-16T12:08:39;95442.31;;;30.13;18.85
10946;BME280;5525;42.648;23.368;2022-10-16T12:11:23;95452.88;;;30.57;18.82
10946;BME280;5525;42.648;23.368;2022-10-16T12:13:51;95459.50;;;30.83;18.88
10946;BME280;5525;42.648;23.368;2022-10-16T12:16:23;95434.59;;;29.82;19.79
10946;BME280;5525;42.648;23.368;2022-10-16T12:19:08;95453.69;;;30.03;19.59
10946;BME280;5525;42.648;23.368;2022-10-16T12:21:38;95460.75;;;30.07;19.82
10946;BME280;5525;42.648;23.368;2022-10-16T12:24:21;95458.38;;;28.97;20.26
10946;BME280;5525;42.648;23.368;2022-10-16T12:26:52;95446.47;;;28.97;20.63
10946;BME280;5525;42.648;23.368;2022-10-16T12:29:29;95457.09;;;28.79;21.08
10946;BME280;5525;42.648;23.368;2022-10-16T12:31:59;95447.19;;;28.78;20.24
10946;BME280;5525;42.648;23.368;2022-10-16T12:34:29;95458.00;;;28.16;21.35
10946;BME280;5525;42.648;23.368;2022-10-16T12:37:09;95446.56;;;27.76;21.09
10946;BME280;5525;42.648;23.368;2022-10-16T12:39:36;95434.13;;;27.54;21.32
10946;BME280;5525;42.648;23.368;2022-10-16T12:42:20;95459.00;;;27.28;22.29
10946;BME280;5525;42.648;23.368;2022-10-16T12:44:49;95421.97;;;26.53;23.07
10946;BME280;5525;42.648;23.368;2022-10-16T12:47:21;95454.97;;;26.30;23.38
10946;BME280;5525;42.648;23.368;2022-10-16T12:49:51;95461.31;;;25.23;24.79
10946;BME280;5525;42.648;23.368;2022-10-16T12:52:35;95439.19;;;24.39;25.73
10946;BME280;5525;42.648;23.368;2022-10-16T12:55:04;95457.81;;;23.49;27.80
10946;BME280;5525;42.648;23.368;2022-10-16T12:57:44;95461.41;;;22.99;28.37
10946;BME280;5525;42.648;23.368;2022-10-16T13:00:23;95462.56;;;22.94;28.70
10946;BME280;5525;42.648;23.368;2022-10-16T13:05:56;95456.25;;;22.03;30.04
10946;BME280;5525;42.648;23.368;2022-10-16T13:08:41;95451.72;;;21.85;29.94
10946;BME280;5525;42.648;23.368;2022-10-16T13:11:21;95463.75;;;21.43;30.35
10946;BME280;5525;42.648;23.368;2022-10-16T13:14:07;95468.00;;;21.11;30.94
10946;BME280;5525;42.648;23.368;2022-10-16T13:16:49;95443.63;;;20.80;31.13
10946;BME280;5525;42.648;23.368;2022-10-16T13:19:26;95441.25;;;20.56;31.35
10946;BME280;5525;42.648;23.368;2022-10-16T13:22:03;95465.09;;;20.75;31.32